Time;durP1;ratioP1;P1;durP2;ratioP2;P2;SDS_P1;SDS_P2;PMS_P1;PMS_P2;Temp;Humidity;BMP_temperature;BMP_pressure;BME280_temperature;BME280_humidity;BME280_pressure;Samples;Min_cycle;Max_cycle;Signal;HPM_P1;HPM_P2
2021/09/21 00:01:09;;;;;;;8.67;5.50;;;;;;;;;;5034320;28;20866;-62
2021/09/21 00:03:36;;;;;;;7.53;5.47;;;;;;;;;;5034189;28;20532;-62
2021/09/21 00:06:05;;;;;;;8.60;5.57;;;;;;;;;;5033655;28;20446;-62
2021/09/21 00:08:32;;;;;;;8.00;5.40;;;;;;;;;;5033177;28;20511;-62
2021/09/21 00:11:01;;;;;;;7.33;5.73;;;;;;;;;;5033037;28;21016;-62
2021/09/21 00:13:28;;;;;;;7.93;6.50;;;;;;;;;;5032909;28;20994;-62
2021/09/21 00:15:56;;;;;;;8.03;7.17;;;;;;;;;;5032974;28;20447;-62
2021/09/21 00:18:24;;;;;;;9.40;7.07;;;;;;;;;;5033279;28;20504;-62
2021/09/21 00:20:52;;;;;;;8.60;7.07;;;;;;;;;;5032827;28;20505;-62
2021/09/21 00:23:19;;;;;;;12.00;7.67;;;;;;;;;;5033115;28;20475;-62
2021/09/21 00:25:47;;;;;;;8.33;7.07;;;;;;;;;;5037334;28;20493;-62
2021/09/21 00:28:14;;;;;;;11.13;8.10;;;;;;;;;;5037259;28;20450;-61
2021/09/21 00:30:47;;;;;;;8.63;7.70;;;;;;;;;;5037219;28;20446;-62
2021/09/21 00:33:17;;;;;;;10.27;8.27;;;;;;;;;;5037087;28;20482;-62
2021/09/21 00:35:46;;;;;;;8.93;7.30;;;;;;;;;;5037083;28;20434;-61
2021/09/21 00:38:14;;;;;;;10.97;8.20;;;;;;;;;;5036998;28;20854;-61
2021/09/21 00:40:42;;;;;;;8.70;7.30;;;;;;;;;;5036997;28;20553;-62
2021/09/21 00:43:09;;;;;;;8.90;7.40;;;;;;;;;;5036655;28;21038;-61
2021/09/21 00:45:36;;;;;;;8.13;7.33;;;;;;;;;;5038670;28;20500;-61
2021/09/21 00:48:03;;;;;;;8.70;6.57;;;;;;;;;;5037466;28;20505;-62
2021/09/21 00:50:31;;;;;;;9.03;6.17;;;;;;;;;;5036632;28;20512;-62
2021/09/21 00:53:02;;;;;;;8.10;6.23;;;;;;;;;;5037063;28;20511;-62
2021/09/21 00:55:29;;;;;;;7.47;6.43;;;;;;;;;;5037214;28;20453;-62
2021/09/21 00:57:56;;;;;;;9.80;6.47;;;;;;;;;;5037008;28;20477;-62
2021/09/21 01:00:24;;;;;;;7.10;6.40;;;;;;;;;;5036529;28;20450;-62
2021/09/21 01:02:51;;;;;;;7.87;6.50;;;;;;;;;;5036582;28;20462;-62
2021/09/21 01:05:18;;;;;;;9.03;6.80;;;;;;;;;;5036692;28;20532;-62
2021/09/21 01:07:46;;;;;;;8.40;6.83;;;;;;;;;;5036260;28;20943;-62
2021/09/21 01:10:16;;;;;;;7.30;5.63;;;;;;;;;;5036453;28;20504;-62
2021/09/21 01:12:44;;;;;;;7.47;6.00;;;;;;;;;;5036138;28;20446;-62
2021/09/21 01:15:12;;;;;;;9.13;7.20;;;;;;;;;;5036073;28;20846;-62
2021/09/21 01:17:39;;;;;;;8.43;6.30;;;;;;;;;;5036418;28;20442;-62
2021/09/21 01:20:07;;;;;;;7.45;6.28;;;;;;;;;;5036343;28;20451;-62
2021/09/21 01:22:36;;;;;;;8.77;6.30;;;;;;;;;;5036184;28;20204;-63
2021/09/21 01:25:03;;;;;;;7.97;6.60;;;;;;;;;;5035980;28;20899;-62
2021/09/21 01:27:30;;;;;;;9.43;6.47;;;;;;;;;;5035937;28;20946;-62
2021/09/21 01:29:58;;;;;;;12.20;6.20;;;;;;;;;;5035805;28;20452;-62
2021/09/21 01:32:25;;;;;;;11.10;7.03;;;;;;;;;;5036049;28;20203;-62
2021/09/21 01:34:52;;;;;;;7.80;6.90;;;;;;;;;;5036169;28;20567;-62
2021/09/21 01:37:21;;;;;;;7.03;6.33;;;;;;;;;;5035812;28;20446;-62
2021/09/21 01:39:50;;;;;;;8.47;6.70;;;;;;;;;;5036075;28;20503;-62
2021/09/21 01:42:17;;;;;;;6.87;6.17;;;;;;;;;;5036021;28;20447;-61
2021/09/21 01:44:45;;;;;;;9.70;6.67;;;;;;;;;;5035908;28;20521;-62
2021/09/21 01:47:12;;;;;;;8.17;6.67;;;;;;;;;;5035570;28;20449;-62
2021/09/21 01:49:48;;;;;;;8.33;6.70;;;;;;;;;;5035871;28;20500;-61
2021/09/21 01:52:17;;;;;;;10.73;6.83;;;;;;;;;;5035551;28;20488;-62
2021/09/21 01:55:06;;;;;;;8.55;7.65;;;;;;;;;;5035141;28;20576;-62
2021/09/21 02:00:19;;;;;;;9.20;7.00;;;;;;;;;;5035684;28;20356;-61
2021/09/21 02:02:46;;;;;;;8.10;6.05;;;;;;;;;;5035456;28;20466;-62
2021/09/21 02:05:13;;;;;;;7.78;7.00;;;;;;;;;;5035538;28;20255;-61
2021/09/21 02:07:41;;;;;;;7.13;6.18;;;;;;;;;;5035585;28;20207;-61
2021/09/21 02:10:08;;;;;;;8.52;6.97;;;;;;;;;;5035255;28;20721;-61
2021/09/21 02:12:37;;;;;;;8.53;7.33;;;;;;;;;;5035345;28;20207;-61
2021/09/21 02:15:05;;;;;;;9.10;6.23;;;;;;;;;;5035320;28;20896;-60
2021/09/21 02:17:32;;;;;;;8.10;7.07;;;;;;;;;;5035328;28;20506;-61
2021/09/21 02:19:59;;;;;;;6.78;6.07;;;;;;;;;;5035228;28;20443;-61
2021/09/21 02:22:26;;;;;;;9.47;7.50;;;;;;;;;;5035069;28;20211;-61
2021/09/21 02:24:56;;;;;;;8.47;6.50;;;;;;;;;;5034685;28;20446;-61
2021/09/21 02:27:23;;;;;;;8.32;7.05;;;;;;;;;;5035007;28;20456;-61
2021/09/21 02:29:52;;;;;;;9.32;6.72;;;;;;;;;;5035061;28;20207;-61
2021/09/21 02:32:19;;;;;;;8.70;7.82;;;;;;;;;;5035446;28;20210;-62
2021/09/21 02:34:46;;;;;;;7.70;6.80;;;;;;;;;;5034821;28;20282;-62
2021/09/21 02:37:14;;;;;;;9.15;7.80;;;;;;;;;;5036152;28;20446;-62
2021/09/21 02:39:41;;;;;;;10.73;7.53;;;;;;;;;;5035978;28;20630;-62
2021/09/21 02:42:08;;;;;;;7.78;6.60;;;;;;;;;;5034763;28;20260;-62
2021/09/21 02:44:36;;;;;;;9.90;6.85;;;;;;;;;;5034408;28;20702;-62
2021/09/21 02:47:05;;;;;;;8.35;7.43;;;;;;;;;;5033591;28;20318;-61
2021/09/21 02:49:32;;;;;;;8.00;6.72;;;;;;;;;;5034344;28;20669;-61
2021/09/21 02:52:00;;;;;;;10.73;7.82;;;;;;;;;;5034672;28;20207;-62
2021/09/21 02:54:27;;;;;;;9.68;7.45;;;;;;;;;;5034227;28;20692;-63
2021/09/21 02:56:54;;;;;;;8.25;6.70;;;;;;;;;;5034259;28;20219;-62
2021/09/21 02:59:22;;;;;;;7.90;6.63;;;;;;;;;;5034247;28;20702;-62
2021/09/21 03:01:49;;;;;;;10.20;7.45;;;;;;;;;;5034478;28;20203;-62
2021/09/21 03:04:22;;;;;;;8.02;6.65;;;;;;;;;;5034082;28;20217;-62
2021/09/21 03:06:52;;;;;;;8.30;6.97;;;;;;;;;;5034113;28;20636;-62
2021/09/21 03:09:33;;;;;;;10.68;7.20;;;;;;;;;;5034568;28;20254;-61
2021/09/21 03:12:14;;;;;;;7.90;6.75;;;;;;;;;;5035134;28;20198;-62
2021/09/21 03:17:27;;;;;;;10.23;6.35;;;;;;;;;;5003452;28;20236;-62
2021/09/21 03:19:55;;;;;;;11.00;7.80;;;;;;;;;;5034013;28;20259;-62
2021/09/21 03:22:23;;;;;;;7.90;6.70;;;;;;;;;;5034246;28;20205;-62
2021/09/21 03:24:50;;;;;;;8.43;7.53;;;;;;;;;;5033599;28;20318;-62
2021/09/21 03:27:17;;;;;;;9.43;7.55;;;;;;;;;;5034063;28;20252;-62
2021/09/21 03:29:45;;;;;;;11.23;8.55;;;;;;;;;;5033903;28;20342;-62
2021/09/21 03:32:12;;;;;;;9.95;6.90;;;;;;;;;;5033792;28;20254;-62
2021/09/21 03:34:40;;;;;;;12.13;8.38;;;;;;;;;;5033553;28;20275;-62
2021/09/21 03:37:09;;;;;;;10.32;8.35;;;;;;;;;;5033956;28;20253;-62
2021/09/21 03:39:37;;;;;;;8.70;6.15;;;;;;;;;;5034461;28;20213;-62
2021/09/21 03:42:04;;;;;;;13.32;8.30;;;;;;;;;;5033907;28;20207;-61
2021/09/21 03:44:31;;;;;;;11.15;8.02;;;;;;;;;;5033776;28;20232;-62
2021/09/21 03:46:59;;;;;;;8.48;7.43;;;;;;;;;;5034354;28;20235;-62
2021/09/21 03:49:26;;;;;;;10.10;7.50;;;;;;;;;;5033641;28;20249;-62
2021/09/21 03:51:54;;;;;;;10.20;7.93;;;;;;;;;;5033577;28;20680;-61
2021/09/21 03:54:22;;;;;;;9.20;7.43;;;;;;;;;;5034067;28;20229;-62
2021/09/21 03:56:49;;;;;;;9.27;7.40;;;;;;;;;;5035077;28;20204;-62
2021/09/21 03:59:17;;;;;;;9.10;8.00;;;;;;;;;;5033341;28;20201;-62
2021/09/21 04:01:44;;;;;;;11.13;8.30;;;;;;;;;;5033444;28;20218;-60
2021/09/21 04:04:11;;;;;;;10.05;7.95;;;;;;;;;;5033130;28;20227;-62
2021/09/21 04:08:36;;;;;;;10.95;8.02;;;;;;;;;;5091973;27;20534;-61
2021/09/21 04:11:03;;;;;;;11.60;8.07;;;;;;;;;;5091001;28;20258;-62
2021/09/21 04:13:30;;;;;;;11.10;7.65;;;;;;;;;;5091035;28;20218;-62
2021/09/21 04:15:58;;;;;;;12.10;7.65;;;;;;;;;;5090655;28;20199;-61
2021/09/21 04:18:25;;;;;;;9.82;7.25;;;;;;;;;;5091914;28;20205;-63
2021/09/21 04:20:52;;;;;;;9.05;7.50;;;;;;;;;;5091310;28;20260;-62
2021/09/21 04:23:19;;;;;;;9.35;7.65;;;;;;;;;;5090666;28;20225;-61
2021/09/21 04:25:48;;;;;;;12.20;7.50;;;;;;;;;;5090630;28;20552;-62
2021/09/21 04:28:15;;;;;;;10.30;7.70;;;;;;;;;;5090574;28;20269;-62
2021/09/21 04:30:44;;;;;;;12.23;8.18;;;;;;;;;;5090785;28;20213;-63
2021/09/21 04:33:11;;;;;;;11.23;7.88;;;;;;;;;;5090492;28;20219;-61
2021/09/21 04:35:40;;;;;;;10.02;8.10;;;;;;;;;;5090739;28;20580;-62
2021/09/21 04:38:07;;;;;;;9.82;8.00;;;;;;;;;;5090317;28;20228;-62
2021/09/21 04:40:35;;;;;;;9.95;7.40;;;;;;;;;;5090256;28;20207;-62
2021/09/21 04:43:03;;;;;;;13.40;9.48;;;;;;;;;;5090512;28;20300;-61
2021/09/21 04:45:31;;;;;;;12.02;9.07;;;;;;;;;;5090726;28;20202;-60
2021/09/21 04:47:58;;;;;;;11.05;8.57;;;;;;;;;;5090353;28;20234;-62
2021/09/21 04:50:25;;;;;;;9.43;7.80;;;;;;;;;;5090850;28;20622;-61
2021/09/21 04:52:52;;;;;;;12.13;8.20;;;;;;;;;;5090691;28;20273;-62
2021/09/21 04:55:20;;;;;;;10.15;7.30;;;;;;;;;;5090589;28;20665;-62
2021/09/21 04:57:48;;;;;;;12.55;9.10;;;;;;;;;;5090498;28;20198;-64
2021/09/21 05:00:18;;;;;;;11.25;7.50;;;;;;;;;;5090462;28;20257;-61
2021/09/21 05:02:45;;;;;;;12.90;8.27;;;;;;;;;;5089648;28;20569;-63
2021/09/21 05:05:12;;;;;;;13.10;8.15;;;;;;;;;;5089949;28;20225;-62
2021/09/21 05:07:39;;;;;;;10.65;8.43;;;;;;;;;;5089416;28;20267;-60
2021/09/21 05:10:07;;;;;;;11.88;7.63;;;;;;;;;;5089919;28;20197;-63
2021/09/21 05:12:34;;;;;;;12.77;8.13;;;;;;;;;;5089466;28;20677;-63
2021/09/21 05:15:02;;;;;;;12.73;8.48;;;;;;;;;;5089385;28;20209;-63
2021/09/21 05:17:30;;;;;;;10.02;8.50;;;;;;;;;;5096830;28;20194;-63
2021/09/21 05:19:58;;;;;;;11.82;8.55;;;;;;;;;;5078130;28;20232;-62
2021/09/21 05:22:25;;;;;;;11.43;8.38;;;;;;;;;;5076547;28;20231;-61
2021/09/21 05:24:52;;;;;;;9.93;8.63;;;;;;;;;;5077654;28;20632;-63
2021/09/21 05:27:19;;;;;;;12.13;8.07;;;;;;;;;;5075783;28;20229;-62
2021/09/21 05:29:47;;;;;;;9.80;8.60;;;;;;;;;;5076012;28;20202;-63
2021/09/21 05:32:14;;;;;;;12.43;8.55;;;;;;;;;;5076414;28;20199;-62
2021/09/21 05:34:42;;;;;;;12.60;7.57;;;;;;;;;;5075941;28;20776;-61
2021/09/21 05:37:10;;;;;;;9.00;7.87;;;;;;;;;;5075868;28;20860;-62
2021/09/21 05:39:37;;;;;;;10.48;8.35;;;;;;;;;;5075651;28;20856;-62
2021/09/21 05:42:04;;;;;;;10.95;8.43;;;;;;;;;;5075616;28;20266;-62
2021/09/21 05:44:32;;;;;;;16.48;7.97;;;;;;;;;;5075977;28;20226;-63
2021/09/21 05:46:59;;;;;;;14.50;9.33;;;;;;;;;;5075496;28;20702;-63
2021/09/21 05:49:26;;;;;;;12.52;8.18;;;;;;;;;;5075436;28;20452;-61
2021/09/21 05:51:55;;;;;;;9.13;7.07;;;;;;;;;;5075750;28;20309;-62
2021/09/21 05:54:22;;;;;;;11.35;7.70;;;;;;;;;;5075792;28;20465;-62
2021/09/21 05:56:49;;;;;;;10.77;8.10;;;;;;;;;;5075871;28;20202;-61
2021/09/21 05:59:17;;;;;;;9.98;8.38;;;;;;;;;;5075961;28;20506;-61
2021/09/21 06:01:44;;;;;;;10.75;9.10;;;;;;;;;;5077874;28;20202;-60
2021/09/21 06:04:13;;;;;;;10.30;9.03;;;;;;;;;;5087484;28;20250;-62
2021/09/21 06:06:40;;;;;;;8.10;7.07;;;;;;;;;;5076848;28;20514;-62
2021/09/21 06:09:09;;;;;;;12.03;9.20;;;;;;;;;;5076143;28;20473;-63
2021/09/21 06:11:37;;;;;;;10.77;8.57;;;;;;;;;;5075065;28;20499;-62
2021/09/21 06:14:04;;;;;;;11.53;9.20;;;;;;;;;;5074628;28;20993;-62
2021/09/21 06:16:32;;;;;;;9.93;8.10;;;;;;;;;;5075815;28;20448;-61
2021/09/21 06:18:59;;;;;;;11.20;8.27;;;;;;;;;;5074665;28;20803;-62
2021/09/21 06:21:27;;;;;;;13.53;8.90;;;;;;;;;;5074558;28;20522;-61
2021/09/21 06:23:55;;;;;;;11.30;9.17;;;;;;;;;;5075335;28;20468;-61
2021/09/21 06:26:24;;;;;;;9.70;8.50;;;;;;;;;;5075925;28;20850;-62
2021/09/21 06:28:51;;;;;;;10.73;9.10;;;;;;;;;;5076563;28;20878;-61
2021/09/21 06:31:18;;;;;;;11.70;8.30;;;;;;;;;;5074269;28;20452;-62
2021/09/21 06:33:45;;;;;;;12.20;8.47;;;;;;;;;;5075043;28;20532;-61
2021/09/21 06:36:13;;;;;;;11.40;8.77;;;;;;;;;;5075361;28;20502;-63
2021/09/21 06:38:40;;;;;;;10.43;7.23;;;;;;;;;;5075707;28;20535;-61
2021/09/21 06:41:08;;;;;;;10.00;8.80;;;;;;;;;;5075562;28;20449;-63
2021/09/21 06:43:36;;;;;;;9.77;8.60;;;;;;;;;;5075868;28;20463;-63
2021/09/21 06:46:04;;;;;;;16.90;8.73;;;;;;;;;;5075528;28;20500;-62
2021/09/21 06:48:31;;;;;;;12.33;8.50;;;;;;;;;;5074961;28;20820;-61
2021/09/21 06:50:58;;;;;;;15.43;9.20;;;;;;;;;;5074789;28;20443;-60
2021/09/21 06:53:26;;;;;;;9.67;7.67;;;;;;;;;;5074630;28;20526;-61
2021/09/21 06:55:53;;;;;;;10.87;8.50;;;;;;;;;;5075856;28;20870;-60
2021/09/21 06:58:20;;;;;;;10.73;7.90;;;;;;;;;;5075309;28;20444;-59
2021/09/21 07:00:49;;;;;;;9.00;7.73;;;;;;;;;;5075941;28;20817;-63
2021/09/21 07:03:16;;;;;;;10.37;7.60;;;;;;;;;;5076557;28;21036;-61
2021/09/21 07:05:44;;;;;;;11.03;8.13;;;;;;;;;;5074347;28;21014;-61
2021/09/21 07:08:11;;;;;;;9.30;7.10;;;;;;;;;;5074246;28;20483;-61
2021/09/21 07:10:38;;;;;;;9.90;7.80;;;;;;;;;;5075026;28;20496;-62
2021/09/21 07:13:05;;;;;;;12.50;7.40;;;;;;;;;;5074671;28;20610;-59
2021/09/21 07:15:33;;;;;;;9.20;7.67;;;;;;;;;;5074718;28;20450;-59
2021/09/21 07:18:01;;;;;;;11.40;7.40;;;;;;;;;;5074648;28;20489;-62
2021/09/21 07:20:29;;;;;;;11.93;7.80;;;;;;;;;;5074136;28;20447;-61
2021/09/21 07:22:56;;;;;;;8.03;6.57;;;;;;;;;;5074621;28;20472;-61
2021/09/21 07:25:23;;;;;;;8.63;7.67;;;;;;;;;;5074474;28;21002;-61
2021/09/21 07:27:52;;;;;;;10.60;7.40;;;;;;;;;;5074263;28;20478;-62
2021/09/21 07:30:20;;;;;;;10.80;7.57;;;;;;;;;;5074357;28;20495;-62
2021/09/21 07:32:48;;;;;;;11.40;6.70;;;;;;;;;;5074373;28;20450;-60
2021/09/21 07:35:16;;;;;;;10.43;8.03;;;;;;;;;;5075303;28;20477;-61
2021/09/21 07:37:43;;;;;;;10.30;6.90;;;;;;;;;;5073568;28;20813;-62
2021/09/21 07:40:12;;;;;;;9.33;7.37;;;;;;;;;;5073883;28;20502;-62
2021/09/21 07:42:39;;;;;;;8.70;6.67;;;;;;;;;;5072937;28;20455;-62
2021/09/21 07:45:07;;;;;;;11.00;7.63;;;;;;;;;;5073830;28;20443;-61
2021/09/21 07:47:34;;;;;;;7.43;6.60;;;;;;;;;;5073741;28;20939;-61
2021/09/21 07:50:02;;;;;;;8.77;7.87;;;;;;;;;;5074229;28;20452;-62
2021/09/21 07:52:30;;;;;;;9.03;7.47;;;;;;;;;;5075959;28;20478;-62
2021/09/21 07:54:58;;;;;;;11.83;7.53;;;;;;;;;;5084184;28;20441;-62
2021/09/21 07:57:26;;;;;;;10.17;7.23;;;;;;;;;;5088461;28;20453;-61
2021/09/21 07:59:53;;;;;;;9.20;7.63;;;;;;;;;;5087571;28;20440;-60
2021/09/21 08:02:21;;;;;;;8.97;8.07;;;;;;;;;;5084122;28;20450;-61
2021/09/21 08:04:48;;;;;;;8.73;7.40;;;;;;;;;;5083278;28;20476;-62
2021/09/21 08:07:15;;;;;;;9.27;7.43;;;;;;;;;;5086824;28;20454;-62
2021/09/21 08:09:45;;;;;;;12.00;7.73;;;;;;;;;;5082340;28;20489;-61
2021/09/21 08:12:12;;;;;;;11.03;7.23;;;;;;;;;;5077683;28;20462;-60
2021/09/21 08:14:39;;;;;;;10.70;6.47;;;;;;;;;;5077216;28;20520;-60
2021/09/21 08:17:06;;;;;;;10.27;6.90;;;;;;;;;;5077356;28;20453;-61
2021/09/21 08:19:34;;;;;;;8.63;6.70;;;;;;;;;;5078342;28;20440;-60
2021/09/21 08:22:01;;;;;;;8.73;7.37;;;;;;;;;;5079865;28;20447;-60
2021/09/21 08:24:28;;;;;;;15.43;7.23;;;;;;;;;;5079909;28;20879;-62
2021/09/21 08:26:57;;;;;;;9.17;7.53;;;;;;;;;;5080879;28;20442;-61
2021/09/21 08:29:24;;;;;;;9.07;7.03;;;;;;;;;;5077891;28;20562;-61
2021/09/21 08:31:51;;;;;;;9.00;6.93;;;;;;;;;;5076487;28;20481;-61
2021/09/21 08:34:19;;;;;;;9.93;7.40;;;;;;;;;;5076879;28;20460;-61
2021/09/21 08:36:49;;;;;;;8.40;6.40;;;;;;;;;;5075394;28;20884;-61
2021/09/21 08:39:16;;;;;;;10.00;6.60;;;;;;;;;;5076529;28;20420;-60
2021/09/21 08:41:43;;;;;;;5.33;4.80;;;;;;;;;;5075622;28;20443;-60
2021/09/21 08:44:12;;;;;;;9.90;5.70;;;;;;;;;;5074464;28;20530;-60
2021/09/21 08:46:39;;;;;;;6.40;5.60;;;;;;;;;;5074739;28;20442;-61
2021/09/21 08:49:07;;;;;;;6.80;5.57;;;;;;;;;;5074003;28;20484;-59
2021/09/21 08:51:34;;;;;;;6.70;4.97;;;;;;;;;;5075009;28;20440;-60
2021/09/21 08:54:02;;;;;;;6.07;5.47;;;;;;;;;;5076781;28;20464;-61
2021/09/21 08:56:29;;;;;;;8.13;5.97;;;;;;;;;;5081073;28;20497;-59
2021/09/21 08:58:57;;;;;;;7.93;5.20;;;;;;;;;;5081307;28;20924;-61
2021/09/21 09:01:26;;;;;;;7.50;5.00;;;;;;;;;;5081931;28;20526;-62
2021/09/21 09:03:54;;;;;;;7.20;5.10;;;;;;;;;;5078188;28;20533;-61
2021/09/21 09:06:21;;;;;;;5.70;4.37;;;;;;;;;;5077569;28;20525;-61
2021/09/21 09:08:48;;;;;;;7.67;5.30;;;;;;;;;;5078100;28;20998;-60
2021/09/21 09:11:16;;;;;;;8.20;5.57;;;;;;;;;;5077956;28;20470;-61
2021/09/21 09:13:45;;;;;;;5.20;4.70;;;;;;;;;;5077226;28;20513;-60
2021/09/21 09:16:13;;;;;;;8.90;5.27;;;;;;;;;;5076799;28;20506;-58
2021/09/21 09:18:42;;;;;;;7.57;4.93;;;;;;;;;;5076923;28;20522;-59
2021/09/21 09:21:10;;;;;;;14.63;6.67;;;;;;;;;;5076393;28;20498;-62
2021/09/21 09:23:45;;;;;;;6.97;5.30;;;;;;;;;;5076151;28;20917;-61
2021/09/21 09:26:13;;;;;;;4.73;4.07;;;;;;;;;;5076294;28;20476;-60
2021/09/21 09:28:40;;;;;;;5.00;4.33;;;;;;;;;;5076114;28;20508;-60
2021/09/21 09:31:07;;;;;;;5.80;4.60;;;;;;;;;;5076128;28;20453;-60
2021/09/21 09:33:36;;;;;;;4.77;4.20;;;;;;;;;;5075898;28;20467;-60
2021/09/21 09:36:05;;;;;;;7.07;4.60;;;;;;;;;;5077085;28;20459;-60
2021/09/21 09:38:32;;;;;;;11.07;4.23;;;;;;;;;;5075646;28;20466;-61
2021/09/21 09:40:59;;;;;;;6.73;5.17;;;;;;;;;;5075284;28;20449;-61
2021/09/21 09:43:27;;;;;;;6.70;5.27;;;;;;;;;;5075575;28;20551;-60
2021/09/21 09:45:55;;;;;;;5.70;4.30;;;;;;;;;;5076089;28;20449;-58
2021/09/21 09:48:23;;;;;;;5.37;4.37;;;;;;;;;;5075864;28;20529;-61
2021/09/21 09:50:52;;;;;;;6.33;4.47;;;;;;;;;;5077124;28;20996;-61
2021/09/21 09:53:23;;;;;;;7.87;4.47;;;;;;;;;;5076491;28;20476;-58
2021/09/21 09:55:52;;;;;;;4.47;3.67;;;;;;;;;;5076059;28;20433;-61
2021/09/21 09:58:20;;;;;;;5.30;4.50;;;;;;;;;;5076662;28;20445;-69
2021/09/21 10:00:49;;;;;;;7.70;4.70;;;;;;;;;;5076875;28;20510;-60
2021/09/21 10:03:16;;;;;;;6.03;4.23;;;;;;;;;;5075445;28;20472;-60
2021/09/21 10:05:44;;;;;;;4.70;4.30;;;;;;;;;;5074816;28;20444;-61
2021/09/21 10:08:13;;;;;;;8.50;4.40;;;;;;;;;;5074467;28;20551;-60
2021/09/21 10:10:42;;;;;;;5.03;4.10;;;;;;;;;;5082795;28;20463;-61
2021/09/21 10:13:10;;;;;;;5.37;4.43;;;;;;;;;;5082039;28;20469;-62
2021/09/21 10:15:38;;;;;;;6.13;4.80;;;;;;;;;;5081207;28;20442;-61
2021/09/21 10:18:05;;;;;;;6.80;4.60;;;;;;;;;;5077978;28;20970;-63
2021/09/21 10:20:33;;;;;;;7.93;4.33;;;;;;;;;;5078919;28;20457;-62
2021/09/21 10:23:00;;;;;;;5.17;4.40;;;;;;;;;;5081171;28;20489;-63
2021/09/21 10:25:29;;;;;;;5.00;4.60;;;;;;;;;;5078266;28;20912;-64
2021/09/21 10:27:58;;;;;;;6.13;4.20;;;;;;;;;;5076936;28;20479;-61
2021/09/21 10:30:28;;;;;;;4.63;4.20;;;;;;;;;;5075078;28;20488;-60
2021/09/21 10:32:56;;;;;;;10.47;4.47;;;;;;;;;;5074965;28;20480;-60
2021/09/21 10:35:27;;;;;;;4.93;4.43;;;;;;;;;;5076826;28;20501;-60
2021/09/21 10:37:58;;;;;;;6.03;4.57;;;;;;;;;;5078004;28;20425;-59
2021/09/21 10:40:35;;;;;;;4.87;4.13;;;;;;;;;;5076295;28;20471;-60
2021/09/21 10:43:03;;;;;;;7.40;5.60;;;;;;;;;;5074970;28;21003;-60
2021/09/21 10:45:31;;;;;;;6.03;4.30;;;;;;;;;;5074368;28;20450;-61
2021/09/21 10:48:06;;;;;;;7.20;4.70;;;;;;;;;;5073990;28;20853;-59
2021/09/21 10:50:39;;;;;;;4.30;3.90;;;;;;;;;;5074144;28;20486;-61
2021/09/21 10:53:07;;;;;;;7.07;4.40;;;;;;;;;;5074580;28;20655;-62
2021/09/21 10:55:35;;;;;;;5.53;4.17;;;;;;;;;;5074162;28;20478;-61
2021/09/21 10:58:05;;;;;;;5.40;4.17;;;;;;;;;;5074481;28;20532;-61
2021/09/21 11:00:34;;;;;;;5.20;4.70;;;;;;;;;;5073868;28;20452;-59
2021/09/21 11:03:03;;;;;;;6.67;5.03;;;;;;;;;;5074431;28;20597;-61
2021/09/21 11:05:31;;;;;;;5.00;4.17;;;;;;;;;;5074488;28;20480;-59
2021/09/21 11:07:59;;;;;;;4.73;4.17;;;;;;;;;;5074055;28;20514;-61
2021/09/21 11:10:28;;;;;;;5.03;3.90;;;;;;;;;;5074202;28;20992;-62
2021/09/21 11:12:55;;;;;;;6.00;4.43;;;;;;;;;;5073623;28;20993;-61
2021/09/21 11:15:26;;;;;;;5.60;4.77;;;;;;;;;;5074487;28;20453;-61
2021/09/21 11:18:02;;;;;;;5.73;5.03;;;;;;;;;;5073295;28;20808;-62
2021/09/21 11:20:30;;;;;;;4.83;4.43;;;;;;;;;;5073330;28;20508;-61
2021/09/21 11:23:00;;;;;;;6.40;4.97;;;;;;;;;;5073969;28;20522;-60
2021/09/21 11:25:29;;;;;;;5.30;4.80;;;;;;;;;;5074650;28;21013;-61
2021/09/21 11:27:56;;;;;;;6.70;5.30;;;;;;;;;;5073381;28;20940;-60
2021/09/21 11:30:25;;;;;;;7.17;4.97;;;;;;;;;;5073928;28;20517;-59
2021/09/21 11:32:52;;;;;;;5.20;4.10;;;;;;;;;;5073759;28;20549;-61
2021/09/21 11:35:20;;;;;;;4.97;4.50;;;;;;;;;;5073919;28;20507;-60
2021/09/21 11:37:48;;;;;;;5.30;4.77;;;;;;;;;;5074051;28;20452;-59
2021/09/21 11:40:23;;;;;;;6.50;4.73;;;;;;;;;;5074446;28;20507;-60
2021/09/21 11:42:50;;;;;;;6.20;5.50;;;;;;;;;;5073656;28;20972;-60
2021/09/21 11:45:18;;;;;;;6.00;4.93;;;;;;;;;;5076081;28;20443;-61
2021/09/21 11:47:48;;;;;;;6.60;4.83;;;;;;;;;;5074677;28;20859;-60
2021/09/21 11:50:16;;;;;;;5.63;5.03;;;;;;;;;;5073925;28;20568;-60
2021/09/21 11:52:47;;;;;;;6.23;4.20;;;;;;;;;;5073679;28;20448;-60
2021/09/21 11:55:15;;;;;;;7.20;4.90;;;;;;;;;;5073331;28;20490;-59
2021/09/21 11:57:43;;;;;;;5.00;4.53;;;;;;;;;;5073806;28;20505;-60
2021/09/21 12:00:20;;;;;;;5.30;4.10;;;;;;;;;;5073555;28;20494;-61
2021/09/21 12:02:52;;;;;;;6.30;4.80;;;;;;;;;;5073322;28;20900;-60
2021/09/21 12:05:19;;;;;;;5.20;4.67;;;;;;;;;;5074332;28;20434;-59
2021/09/21 12:07:47;;;;;;;7.43;5.27;;;;;;;;;;5073211;28;20457;-61
2021/09/21 12:10:15;;;;;;;7.30;4.97;;;;;;;;;;5073229;28;20484;-60
2021/09/21 12:12:43;;;;;;;5.30;4.17;;;;;;;;;;5073383;28;20467;-62
2021/09/21 12:15:12;;;;;;;5.80;4.93;;;;;;;;;;5072593;28;21001;-61
2021/09/21 12:17:41;;;;;;;5.90;5.17;;;;;;;;;;5074814;28;20497;-61
2021/09/21 12:20:10;;;;;;;5.90;4.70;;;;;;;;;;5080045;28;20486;-61
2021/09/21 12:22:38;;;;;;;4.47;3.80;;;;;;;;;;5073426;28;20476;-59
2021/09/21 12:25:08;;;;;;;5.20;4.70;;;;;;;;;;5072719;28;20453;-60
2021/09/21 12:27:36;;;;;;;4.83;4.23;;;;;;;;;;5072612;28;20441;-62
2021/09/21 12:30:06;;;;;;;4.30;3.80;;;;;;;;;;5076091;28;20472;-60
2021/09/21 12:32:33;;;;;;;5.37;4.30;;;;;;;;;;5076743;28;20453;-61
2021/09/21 12:35:02;;;;;;;6.67;4.10;;;;;;;;;;5077314;28;20454;-62
2021/09/21 12:37:38;;;;;;;7.00;3.50;;;;;;;;;;5076983;28;20449;-61
2021/09/21 12:40:13;;;;;;;4.37;3.63;;;;;;;;;;5077592;28;20482;-59
2021/09/21 12:42:41;;;;;;;5.37;3.87;;;;;;;;;;5076969;28;20441;-60
2021/09/21 12:45:09;;;;;;;4.30;3.77;;;;;;;;;;5076541;28;20446;-62
2021/09/21 12:47:38;;;;;;;4.97;4.00;;;;;;;;;;5076837;28;20563;-60
2021/09/21 12:50:06;;;;;;;3.67;3.10;;;;;;;;;;5076448;28;20571;-60
2021/09/21 12:52:33;;;;;;;5.50;3.37;;;;;;;;;;5076130;28;20505;-61
2021/09/21 12:55:02;;;;;;;7.30;3.40;;;;;;;;;;5076844;28;20442;-60
2021/09/21 12:57:29;;;;;;;4.03;3.13;;;;;;;;;;5076824;28;20456;-59
2021/09/21 12:59:56;;;;;;;4.00;3.30;;;;;;;;;;5076606;28;20510;-60
2021/09/21 13:02:24;;;;;;;4.00;3.60;;;;;;;;;;5076565;28;20551;-62
2021/09/21 13:04:51;;;;;;;4.00;3.60;;;;;;;;;;5075881;28;20518;-61
2021/09/21 13:07:18;;;;;;;4.83;3.43;;;;;;;;;;5075857;28;20463;-60
2021/09/21 13:09:45;;;;;;;2.90;2.60;;;;;;;;;;5075761;28;20550;-59
2021/09/21 13:12:14;;;;;;;5.60;3.50;;;;;;;;;;5076063;28;20504;-62
2021/09/21 13:14:42;;;;;;;5.50;2.97;;;;;;;;;;5075902;28;20459;-61
2021/09/21 13:17:09;;;;;;;5.43;3.40;;;;;;;;;;5076374;28;20445;-62
2021/09/21 13:19:36;;;;;;;4.93;3.40;;;;;;;;;;5076838;28;20503;-61
2021/09/21 13:22:03;;;;;;;3.37;2.97;;;;;;;;;;5077489;28;20450;-62
2021/09/21 13:24:31;;;;;;;9.10;3.40;;;;;;;;;;5081243;28;20473;-61
2021/09/21 13:26:58;;;;;;;3.33;3.00;;;;;;;;;;5079090;28;20471;-63
2021/09/21 13:29:27;;;;;;;5.70;3.57;;;;;;;;;;5077475;28;20473;-59
2021/09/21 13:31:54;;;;;;;4.03;3.43;;;;;;;;;;5077816;28;20544;-61
2021/09/21 13:34:21;;;;;;;5.90;3.40;;;;;;;;;;5078291;28;20466;-60
2021/09/21 13:36:48;;;;;;;3.83;2.90;;;;;;;;;;5077084;28;20453;-59
2021/09/21 13:39:16;;;;;;;5.07;3.27;;;;;;;;;;5076689;28;21023;-61
2021/09/21 13:41:43;;;;;;;3.20;2.87;;;;;;;;;;5077219;28;20481;-61
2021/09/21 13:44:11;;;;;;;5.67;3.53;;;;;;;;;;5076765;28;20540;-61
2021/09/21 13:46:39;;;;;;;2.93;2.63;;;;;;;;;;5077118;28;20943;-59
2021/09/21 13:49:06;;;;;;;4.70;3.67;;;;;;;;;;5077677;28;20446;-60
2021/09/21 13:51:34;;;;;;;8.10;3.90;;;;;;;;;;5078224;28;20480;-61
2021/09/21 13:54:01;;;;;;;4.03;3.10;;;;;;;;;;5077660;28;20522;-59
2021/09/21 13:56:28;;;;;;;4.20;3.50;;;;;;;;;;5077013;28;20500;-61
2021/09/21 13:58:57;;;;;;;4.70;3.47;;;;;;;;;;5075928;28;20933;-60
2021/09/21 14:01:24;;;;;;;4.37;3.30;;;;;;;;;;5076193;28;20536;-61
2021/09/21 14:03:53;;;;;;;5.20;3.17;;;;;;;;;;5075575;28;20532;-58
2021/09/21 14:06:20;;;;;;;6.67;3.80;;;;;;;;;;5075311;28;20510;-60
2021/09/21 14:08:48;;;;;;;3.20;2.90;;;;;;;;;;5075476;28;20826;-58
2021/09/21 14:11:16;;;;;;;3.93;2.90;;;;;;;;;;5074950;28;20480;-59
2021/09/21 14:13:43;;;;;;;4.10;3.10;;;;;;;;;;5075506;28;20522;-61
2021/09/21 14:16:10;;;;;;;4.07;3.07;;;;;;;;;;5075162;28;20995;-61
2021/09/21 14:18:37;;;;;;;5.63;4.00;;;;;;;;;;5075163;28;20862;-61
2021/09/21 14:21:07;;;;;;;4.97;3.37;;;;;;;;;;5075142;28;20472;-59
2021/09/21 14:23:34;;;;;;;4.13;3.70;;;;;;;;;;5074949;28;20482;-60
2021/09/21 14:26:01;;;;;;;6.00;3.47;;;;;;;;;;5079855;28;20447;-61
2021/09/21 14:28:28;;;;;;;5.13;3.90;;;;;;;;;;5085957;28;20984;-61
2021/09/21 14:30:56;;;;;;;6.03;3.50;;;;;;;;;;5075595;28;20478;-61
2021/09/21 14:33:23;;;;;;;3.47;3.17;;;;;;;;;;5074705;28;20990;-60
2021/09/21 14:35:51;;;;;;;4.50;3.63;;;;;;;;;;5074294;28;20445;-61
2021/09/21 14:38:20;;;;;;;5.10;3.80;;;;;;;;;;5074280;28;20445;-61
2021/09/21 14:40:47;;;;;;;6.40;4.10;;;;;;;;;;5074367;28;20485;-62
2021/09/21 14:43:15;;;;;;;3.87;3.43;;;;;;;;;;5074391;28;20465;-59
2021/09/21 14:45:42;;;;;;;5.20;3.53;;;;;;;;;;5074161;28;20445;-62
2021/09/21 14:48:10;;;;;;;3.40;2.83;;;;;;;;;;5074758;28;20446;-61
2021/09/21 14:50:37;;;;;;;5.20;3.27;;;;;;;;;;5073634;28;20481;-61